createdAt,value
2022-09-15T00:01:42.313Z,99709.60
2022-09-15T00:04:10.929Z,99707.80
2022-09-15T00:06:39.534Z,99701.80
2022-09-15T00:09:08.721Z,99695.80
2022-09-15T00:11:38.423Z,99699.40
2022-09-15T00:14:08.795Z,99699.60
2022-09-15T00:16:38.461Z,99698.00
2022-09-15T00:19:07.047Z,99694.80
2022-09-15T00:21:39.313Z,99693.60
2022-09-15T00:24:08.958Z,99689.80
2022-09-15T00:26:38.736Z,99693.00
2022-09-15T00:29:07.449Z,99697.00
2022-09-15T00:31:36.630Z,99698.80
2022-09-15T00:34:07.383Z,99704.60
2022-09-15T00:36:35.944Z,99701.60
2022-09-15T00:39:05.035Z,99702.20
2022-09-15T00:41:33.722Z,99711.60
2022-09-15T00:44:35.484Z,99707.00
2022-09-15T00:47:21.849Z,99708.00
2022-09-15T00:49:59.206Z,99704.60
2022-09-15T00:53:04.829Z,99702.20
2022-09-15T00:55:48.859Z,99704.60
2022-09-15T00:58:37.299Z,99707.60
2022-09-15T01:01:08.370Z,99696.80
2022-09-15T01:03:37.167Z,99697.60
2022-09-15T01:06:21.719Z,99700.80
2022-09-15T01:09:25.214Z,99698.80
2022-09-15T01:11:53.907Z,99706.00
2022-09-15T01:14:22.390Z,99703.00
2022-09-15T01:17:08.997Z,99701.40
2022-09-15T01:20:00.827Z,99697.00
2022-09-15T01:23:16.719Z,99694.20
2022-09-15T01:26:35.994Z,99694.40
2022-09-15T01:29:43.250Z,99698.00
2022-09-15T01:32:46.738Z,99703.20
2022-09-15T01:35:26.025Z,99704.40
2022-09-15T01:38:35.681Z,99708.40
2022-09-15T01:41:43.374Z,99707.60
2022-09-15T01:44:21.967Z,99709.00
2022-09-15T01:47:05.834Z,99709.60
2022-09-15T01:49:50.701Z,99703.00
2022-09-15T01:52:22.764Z,99699.80
2022-09-15T01:54:57.896Z,99699.00
2022-09-15T01:57:27.695Z,99707.80
2022-09-15T01:59:57.121Z,99710.80
2022-09-15T02:02:36.063Z,99708.80
2022-09-15T02:05:16.816Z,99710.00
2022-09-15T02:08:16.328Z,99713.60
2022-09-15T02:11:00.374Z,99716.00
2022-09-15T02:14:11.820Z,99714.40
2022-09-15T02:16:47.134Z,99720.80
2022-09-15T02:19:21.833Z,99726.40
2022-09-15T02:22:28.089Z,99713.00
2022-09-15T02:25:04.370Z,99708.80
2022-09-15T02:27:40.166Z,99708.80
2022-09-15T02:30:14.395Z,99715.40
2022-09-15T02:32:52.006Z,99722.00
2022-09-15T02:35:21.466Z,99721.60
2022-09-15T02:37:52.002Z,99723.60
2022-09-15T02:40:21.272Z,99724.00
2022-09-15T02:42:57.540Z,99721.00
2022-09-15T02:45:27.288Z,99719.40
2022-09-15T02:47:56.548Z,99714.40
2022-09-15T02:50:28.406Z,99711.20
2022-09-15T02:52:58.117Z,99715.20
2022-09-15T02:55:29.368Z,99710.00
2022-09-15T02:57:59.014Z,99713.40
2022-09-15T03:00:28.912Z,99715.80
2022-09-15T03:02:57.898Z,99714.40
2022-09-15T03:05:30.300Z,99721.40
2022-09-15T03:07:58.841Z,99722.60
2022-09-15T03:10:27.328Z,99715.60
2022-09-15T03:12:55.907Z,99717.00
2022-09-15T03:15:27.128Z,99719.80
2022-09-15T03:17:55.946Z,99722.20
2022-09-15T03:20:30.775Z,99725.20
2022-09-15T03:22:59.666Z,99721.80
2022-09-15T03:25:28.455Z,99721.00
2022-09-15T03:27:58.574Z,99721.80
2022-09-15T03:30:27.055Z,99726.80
2022-09-15T03:32:55.847Z,99725.40
2022-09-15T03:35:24.429Z,99731.80
2022-09-15T03:37:53.525Z,99728.60
2022-09-15T03:40:22.479Z,99734.20
2022-09-15T03:42:51.513Z,99733.80
2022-09-15T03:45:20.303Z,99732.20
2022-09-15T03:47:48.784Z,99736.20
2022-09-15T03:50:17.471Z,99732.40
2022-09-15T03:52:46.877Z,99732.20
2022-09-15T03:55:15.665Z,99726.20
2022-09-15T03:57:44.147Z,99731.80
2022-09-15T04:00:14.405Z,99731.80
2022-09-15T04:02:43.365Z,99728.60
2022-09-15T04:05:13.620Z,99727.20
2022-09-15T04:07:42.417Z,99731.40
2022-09-15T04:10:11.676Z,99725.80
2022-09-15T04:12:40.162Z,99726.40
2022-09-15T04:15:09.453Z,99730.80
2022-09-15T04:17:38.044Z,99727.40
2022-09-15T04:20:07.659Z,99730.60
2022-09-15T04:22:36.236Z,99729.20
2022-09-15T04:25:05.537Z,99732.20
2022-09-15T04:27:35.967Z,99731.40
2022-09-15T04:30:07.453Z,99733.40
2022-09-15T04:32:36.561Z,99728.20
2022-09-15T04:35:06.067Z,99725.80
2022-09-15T04:37:34.709Z,99730.60
2022-09-15T04:40:03.837Z,99731.00
2022-09-15T04:42:32.491Z,99728.20
2022-09-15T04:45:01.278Z,99732.20
2022-09-15T04:47:29.863Z,99732.60
2022-09-15T04:49:58.346Z,99734.60
2022-09-15T04:52:26.827Z,99734.40
2022-09-15T04:54:55.309Z,99739.00
2022-09-15T04:57:23.895Z,99738.20
2022-09-15T04:59:52.785Z,99742.40
2022-09-15T05:02:21.399Z,99735.40
2022-09-15T05:04:51.812Z,99737.60
2022-09-15T05:07:20.894Z,99740.20
2022-09-15T05:09:49.580Z,99730.40
2022-09-15T05:12:18.165Z,99738.80
2022-09-15T05:14:46.749Z,99734.60
2022-09-15T05:17:15.851Z,99740.00
2022-09-15T05:19:44.737Z,99740.40
2022-09-15T05:22:13.732Z,99738.20
2022-09-15T05:24:42.315Z,99737.00
2022-09-15T05:27:10.899Z,99735.20
2022-09-15T05:29:39.798Z,99735.40
2022-09-15T05:32:08.479Z,99737.40
2022-09-15T05:34:37.268Z,99734.00
2022-09-15T05:37:05.954Z,99730.80
2022-09-15T05:39:34.437Z,99731.40
2022-09-15T05:42:03.228Z,99733.60
2022-09-15T05:44:32.015Z,99730.80
2022-09-15T05:47:00.742Z,99732.40
2022-09-15T05:49:30.953Z,99737.40
2022-09-15T05:51:59.662Z,99733.40
2022-09-15T05:54:28.195Z,99726.20
2022-09-15T05:56:56.677Z,99726.20
2022-09-15T05:59:25.265Z,99717.80
2022-09-15T06:01:54.080Z,99717.80
2022-09-15T06:04:22.533Z,99709.60
2022-09-15T06:06:51.527Z,99705.00
2022-09-15T06:09:20.111Z,99698.20
2022-09-15T06:11:48.798Z,99692.60
2022-09-15T06:14:17.280Z,99688.00
2022-09-15T06:16:46.171Z,99689.60
2022-09-15T06:19:15.170Z,99693.00
2022-09-15T06:21:43.752Z,99697.40
2022-09-15T06:24:12.846Z,99690.40
2022-09-15T06:26:41.328Z,99695.60
2022-09-15T06:29:13.015Z,99700.60
2022-09-15T06:31:41.930Z,99697.40
2022-09-15T06:34:29.816Z,99692.20
2022-09-15T06:36:58.604Z,99694.40
2022-09-15T06:39:27.495Z,99692.40
2022-09-15T06:42:02.835Z,99691.20
2022-09-15T06:44:32.755Z,99693.40
2022-09-15T06:47:01.748Z,99695.60
2022-09-15T06:49:31.561Z,99695.60
2022-09-15T06:52:02.815Z,99698.20
2022-09-15T06:54:31.701Z,99700.60
2022-09-15T06:57:00.594Z,99701.40
2022-09-15T06:59:29.176Z,99695.40
2022-09-15T07:02:05.310Z,99696.20
2022-09-15T07:04:37.306Z,99698.00
2022-09-15T07:07:05.796Z,99698.60
2022-09-15T07:09:34.265Z,99696.80
2022-09-15T07:12:02.951Z,99693.20
2022-09-15T07:14:31.439Z,99692.00
2022-09-15T07:16:59.916Z,99691.00
2022-09-15T07:19:28.398Z,99692.60
2022-09-15T07:21:56.882Z,99696.20
2022-09-15T07:24:25.362Z,99694.00
2022-09-15T07:26:53.845Z,99690.40
2022-09-15T07:29:22.543Z,99680.80
2022-09-15T07:31:51.141Z,99672.00
2022-09-15T07:34:19.802Z,99658.40
2022-09-15T07:36:48.285Z,99653.20
2022-09-15T07:39:16.869Z,99641.40
2022-09-15T07:41:45.351Z,99638.80
2022-09-15T07:44:14.560Z,99638.20
2022-09-15T07:46:43.338Z,99637.60
2022-09-15T07:49:12.026Z,99635.40
2022-09-15T07:51:40.527Z,99632.40
2022-09-15T07:54:09.194Z,99638.20
2022-09-15T07:56:37.677Z,99637.80
2022-09-15T07:59:06.305Z,99648.40
2022-09-15T08:01:35.100Z,99649.60
2022-09-15T08:04:03.950Z,99654.20
2022-09-15T08:06:34.574Z,99661.80
2022-09-15T08:09:03.718Z,99651.20
2022-09-15T08:11:32.564Z,99651.20
2022-09-15T08:14:03.220Z,99653.00
2022-09-15T08:16:32.036Z,99644.80
2022-09-15T08:19:01.148Z,99669.00
2022-09-15T08:21:30.176Z,99669.20
2022-09-15T08:24:01.542Z,99680.80
2022-09-15T08:26:31.236Z,99693.80
2022-09-15T08:29:00.950Z,99701.40
2022-09-15T08:31:29.875Z,99707.20
2022-09-15T08:33:58.529Z,99710.00
2022-09-15T08:36:28.306Z,99713.60
2022-09-15T08:38:57.029Z,99719.00
2022-09-15T08:41:32.675Z,99727.40
2022-09-15T08:44:27.898Z,99728.80
2022-09-15T08:47:07.221Z,99732.00
2022-09-15T08:49:59.255Z,99733.60
2022-09-15T08:53:31.948Z,99735.80
2022-09-15T08:56:09.785Z,99735.80
2022-09-15T08:58:38.955Z,99720.00
2022-09-15T09:02:07.646Z,99726.00
2022-09-15T09:04:42.224Z,99722.00
2022-09-15T09:07:57.121Z,99715.40
2022-09-15T09:10:51.729Z,99717.40
2022-09-15T09:14:01.888Z,99721.40
2022-09-15T09:16:42.353Z,99732.00
2022-09-15T09:19:32.161Z,99727.80
2022-09-15T09:22:09.829Z,99736.20
2022-09-15T09:24:44.605Z,99729.00
2022-09-15T09:27:20.904Z,99730.80
2022-09-15T09:30:00.665Z,99732.40
2022-09-15T09:33:45.086Z,99732.40
2022-09-15T09:36:16.789Z,99732.00
2022-09-15T09:38:47.740Z,99733.00
2022-09-15T09:41:36.691Z,99717.40
2022-09-15T09:44:11.452Z,99717.80
2022-09-15T09:46:40.196Z,99710.80
2022-09-15T09:49:23.209Z,99717.60
2022-09-15T09:51:56.015Z,99719.20
2022-09-15T09:54:27.469Z,99725.00
2022-09-15T09:57:22.063Z,99725.00
2022-09-15T09:59:52.041Z,99724.40
2022-09-15T10:02:24.977Z,99722.40
2022-09-15T10:05:03.429Z,99717.40
2022-09-15T10:07:34.507Z,99718.40
2022-09-15T10:10:03.110Z,99715.60
2022-09-15T10:12:40.811Z,99711.80
2022-09-15T10:15:26.896Z,99707.20
2022-09-15T10:17:56.818Z,99694.00
2022-09-15T10:20:33.012Z,99698.00
2022-09-15T10:23:03.780Z,99701.80
2022-09-15T10:25:57.597Z,99697.40
2022-09-15T10:28:27.788Z,99701.00
2022-09-15T10:31:02.240Z,99700.60
2022-09-15T10:33:37.021Z,99710.40
2022-09-15T10:36:31.046Z,99722.80
2022-09-15T10:39:23.695Z,99722.60
2022-09-15T10:42:17.266Z,99722.80
2022-09-15T10:44:58.241Z,99718.20
2022-09-15T10:47:50.172Z,99716.40
2022-09-15T10:50:42.935Z,99710.80
2022-09-15T10:53:28.405Z,99712.60
2022-09-15T10:56:40.100Z,99710.80
2022-09-15T10:59:46.061Z,99720.00
2022-09-15T11:02:49.359Z,99723.80
2022-09-15T11:05:28.390Z,99732.60
2022-09-15T11:08:24.826Z,99730.80
2022-09-15T11:11:23.823Z,99739.80
2022-09-15T11:14:13.399Z,99741.20
2022-09-15T11:17:02.465Z,99736.40
2022-09-15T11:19:58.799Z,99732.20
2022-09-15T11:22:49.617Z,99732.20
2022-09-15T11:25:25.249Z,99723.60
2022-09-15T11:28:18.110Z,99718.80
2022-09-15T11:31:09.871Z,99718.60
2022-09-15T11:34:00.336Z,99717.80
2022-09-15T11:36:57.386Z,99717.40
2022-09-15T11:39:36.927Z,99714.00
2022-09-15T11:42:16.045Z,99713.20
2022-09-15T11:44:46.869Z,99712.40
2022-09-15T11:47:30.841Z,99709.60
2022-09-15T11:50:09.027Z,99717.80
2022-09-15T11:52:52.382Z,99717.00
2022-09-15T11:55:47.897Z,99713.80
2022-09-15T11:58:36.758Z,99710.80
2022-09-15T12:01:11.180Z,99718.20
2022-09-15T12:03:59.681Z,99729.00
2022-09-15T12:06:43.297Z,99729.60
2022-09-15T12:09:19.990Z,99726.00
2022-09-15T12:12:02.248Z,99725.80
2022-09-15T12:14:37.603Z,99729.40
2022-09-15T12:17:10.074Z,99721.40
2022-09-15T12:19:51.347Z,99725.20
2022-09-15T12:22:29.354Z,99720.60
2022-09-15T12:25:18.317Z,99720.60
2022-09-15T12:28:24.306Z,99718.60
2022-09-15T12:31:24.250Z,99712.80
2022-09-15T12:33:57.388Z,99706.40
2022-09-15T12:36:45.825Z,99706.80
2022-09-15T12:39:39.919Z,99699.60
2022-09-15T12:42:15.205Z,99701.20
2022-09-15T12:44:53.002Z,99704.20
2022-09-15T12:47:49.401Z,99704.00
2022-09-15T12:50:23.107Z,99700.60
2022-09-15T12:53:13.397Z,99708.40
2022-09-15T12:55:58.566Z,99702.20
2022-09-15T12:58:47.635Z,99697.60
2022-09-15T13:01:19.272Z,99694.00
2022-09-15T13:03:51.172Z,99695.40
2022-09-15T13:06:33.357Z,99692.20
2022-09-15T13:09:06.653Z,99691.60
2022-09-15T13:11:38.690Z,99689.80
2022-09-15T13:14:36.035Z,99690.80
2022-09-15T13:17:13.775Z,99691.00
2022-09-15T13:19:46.975Z,99699.00
2022-09-15T13:22:36.883Z,99698.00
2022-09-15T13:25:11.477Z,99691.20
2022-09-15T13:27:48.209Z,99690.80
2022-09-15T13:30:36.590Z,99699.40
2022-09-15T13:40:39.438Z,99713.80
2022-09-15T13:43:41.204Z,99709.20
2022-09-15T13:46:51.360Z,99711.80
2022-09-15T13:50:00.109Z,99710.00
2022-09-15T13:52:50.384Z,99706.40
2022-09-15T13:55:25.619Z,99706.40
2022-09-15T14:00:57.131Z,99702.60
2022-09-15T14:03:49.539Z,99699.00
2022-09-15T14:06:47.259Z,99701.40
2022-09-15T14:09:31.454Z,99698.20
2022-09-15T14:12:09.791Z,99703.40
2022-09-15T14:14:54.121Z,99696.20
2022-09-15T14:17:29.485Z,99698.20
2022-09-15T14:20:01.025Z,99696.00
2022-09-15T14:22:36.031Z,99700.20
2022-09-15T14:25:17.083Z,99696.80
2022-09-15T14:27:49.963Z,99692.80
2022-09-15T14:30:22.006Z,99689.60
2022-09-15T14:33:00.426Z,99693.20
2022-09-15T14:35:38.404Z,99699.00
2022-09-15T14:38:06.989Z,99694.40
2022-09-15T14:40:39.409Z,99687.00
2022-09-15T14:43:35.757Z,99694.00
2022-09-15T14:46:18.475Z,99688.40
2022-09-15T14:48:47.003Z,99695.40
2022-09-15T14:51:28.853Z,99696.00
2022-09-15T14:54:00.370Z,99696.00
2022-09-15T14:56:35.178Z,99698.60
2022-09-15T14:59:09.411Z,99698.20
2022-09-15T15:01:47.128Z,99697.00
2022-09-15T15:04:36.872Z,99692.80
2022-09-15T15:07:29.557Z,99690.00
2022-09-15T15:10:02.131Z,99686.20
2022-09-15T15:12:44.155Z,99687.60
2022-09-15T15:15:15.599Z,99686.80
2022-09-15T15:17:45.668Z,99684.40
2022-09-15T15:20:23.168Z,99684.60
2022-09-15T15:23:22.469Z,99687.00
2022-09-15T15:25:51.767Z,99688.80
2022-09-15T15:28:31.011Z,99699.20
2022-09-15T15:31:13.052Z,99699.80
2022-09-15T15:33:57.338Z,99696.00
2022-09-15T15:36:29.378Z,99695.60
2022-09-15T15:39:05.920Z,99699.80
2022-09-15T15:41:42.145Z,99701.00
2022-09-15T15:44:17.023Z,99700.20
2022-09-15T15:47:25.507Z,99698.20
2022-09-15T15:50:12.830Z,99697.20
2022-09-15T15:52:42.600Z,99699.20
2022-09-15T15:55:23.515Z,99699.20
2022-09-15T15:57:55.133Z,99700.40
2022-09-15T16:00:47.051Z,99703.60
2022-09-15T16:03:17.339Z,99706.20
2022-09-15T16:05:52.019Z,99705.40
2022-09-15T16:08:32.482Z,99707.20
2022-09-15T16:11:03.381Z,99699.80
2022-09-15T16:13:32.144Z,99699.00
2022-09-15T16:16:02.128Z,99697.60
2022-09-15T16:18:30.785Z,99696.40
2022-09-15T16:20:59.538Z,99700.40
2022-09-15T16:23:28.325Z,99697.20
2022-09-15T16:26:07.684Z,99702.20
2022-09-15T16:28:36.572Z,99703.80
2022-09-15T16:31:05.931Z,99701.80
2022-09-15T16:33:37.949Z,99707.60
2022-09-15T16:36:12.758Z,99711.20
2022-09-15T16:38:44.512Z,99708.80
2022-09-15T16:41:19.375Z,99707.40
2022-09-15T16:43:47.926Z,99711.60
2022-09-15T16:46:17.376Z,99709.80
2022-09-15T16:48:49.394Z,99716.20
2022-09-15T16:51:28.907Z,99720.80
2022-09-15T16:54:00.494Z,99721.40
2022-09-15T16:56:29.177Z,99722.80
2022-09-15T16:59:00.568Z,99721.00
2022-09-15T17:01:29.629Z,99719.80
2022-09-15T17:03:58.514Z,99726.00
2022-09-15T17:06:27.508Z,99729.20
2022-09-15T17:08:56.092Z,99729.80
2022-09-15T17:11:26.213Z,99722.40
2022-09-15T17:13:55.027Z,99725.40
2022-09-15T17:16:23.738Z,99729.20
2022-09-15T17:18:52.581Z,99730.40
2022-09-15T17:21:21.062Z,99723.60
2022-09-15T17:23:50.687Z,99728.80
2022-09-15T17:26:30.576Z,99730.80
2022-09-15T17:29:00.435Z,99751.60
2022-09-15T17:31:29.168Z,99752.60
2022-09-15T17:33:58.252Z,99757.00
2022-09-15T17:36:27.724Z,99753.80
2022-09-15T17:38:56.292Z,99752.20
2022-09-15T17:41:25.000Z,99757.00
2022-09-15T17:43:54.521Z,99754.80
2022-09-15T17:46:23.358Z,99761.00
2022-09-15T17:48:51.981Z,99763.20
2022-09-15T17:51:21.384Z,99766.20
2022-09-15T17:53:49.968Z,99757.80
2022-09-15T17:56:18.761Z,99758.20
2022-09-15T17:58:47.671Z,99760.40
2022-09-15T18:01:16.702Z,99766.80
2022-09-15T18:03:45.803Z,99761.80
2022-09-15T18:06:15.146Z,99761.60
2022-09-15T18:08:44.416Z,99764.80
2022-09-15T18:11:15.984Z,99766.00
2022-09-15T18:13:44.584Z,99766.40
2022-09-15T18:16:15.174Z,99761.20
2022-09-15T18:18:43.909Z,99770.00
2022-09-15T18:21:29.007Z,99773.80
2022-09-15T18:23:57.668Z,99778.40
2022-09-15T18:26:26.957Z,99777.60
2022-09-15T18:28:56.516Z,99783.20
2022-09-15T18:31:25.750Z,99782.20
2022-09-15T18:33:54.568Z,99780.20
2022-09-15T18:36:23.317Z,99774.00
2022-09-15T18:38:51.863Z,99776.60
2022-09-15T18:41:20.477Z,99775.20
2022-09-15T18:43:51.862Z,99776.80
2022-09-15T18:46:20.955Z,99779.20
2022-09-15T18:48:49.952Z,99779.20
2022-09-15T18:51:24.036Z,99780.40
2022-09-15T18:53:57.770Z,99785.80
2022-09-15T18:56:26.362Z,99786.60
2022-09-15T18:58:56.003Z,99782.20
2022-09-15T19:01:25.028Z,99787.60
2022-09-15T19:03:54.904Z,99792.40
2022-09-15T19:06:24.072Z,99791.40
2022-09-15T19:08:52.961Z,99789.60
2022-09-15T19:11:23.312Z,99790.00
2022-09-15T19:13:54.059Z,99796.60
2022-09-15T19:16:34.723Z,99796.20
2022-09-15T19:19:12.345Z,99795.00
2022-09-15T19:21:41.498Z,99797.80
2022-09-15T19:24:11.197Z,99797.80
2022-09-15T19:26:40.057Z,99799.60
2022-09-15T19:29:10.145Z,99794.80
2022-09-15T19:31:42.001Z,99799.60
2022-09-15T19:34:11.682Z,99807.80
2022-09-15T19:36:40.469Z,99805.00
2022-09-15T19:39:13.333Z,99800.60
2022-09-15T19:41:43.678Z,99803.60
2022-09-15T19:44:12.672Z,99803.60
2022-09-15T19:46:41.258Z,99802.20
2022-09-15T19:49:11.786Z,99804.40
2022-09-15T19:51:40.954Z,99807.60
2022-09-15T19:54:11.239Z,99809.20
2022-09-15T19:56:40.172Z,99815.40
2022-09-15T19:59:10.735Z,99818.00
2022-09-15T20:01:39.874Z,99808.60
2022-09-15T20:06:56.866Z,99817.40
2022-09-15T20:09:26.471Z,99827.80
2022-09-15T20:11:55.468Z,99832.20
2022-09-15T20:14:24.564Z,99825.80
2022-09-15T20:16:55.154Z,99831.00
2022-09-15T20:19:26.550Z,99833.80
2022-09-15T20:21:55.031Z,99843.40
2022-09-15T20:24:25.095Z,99841.60
2022-09-15T20:26:54.088Z,99841.60
2022-09-15T20:29:24.170Z,99840.80
2022-09-15T20:31:54.321Z,99835.80
2022-09-15T20:34:23.173Z,99833.20
2022-09-15T20:36:51.859Z,99834.60
2022-09-15T20:39:22.595Z,99838.80
2022-09-15T20:41:51.279Z,99833.20
2022-09-15T20:44:20.084Z,99831.40
2022-09-15T20:46:49.282Z,99830.80
2022-09-15T20:49:18.368Z,99838.20
2022-09-15T20:51:47.158Z,99838.80
2022-09-15T20:54:15.842Z,99837.20
2022-09-15T20:56:45.248Z,99836.60
2022-09-15T20:59:15.479Z,99841.80
2022-09-15T21:01:44.361Z,99846.00
2022-09-15T21:04:14.787Z,99850.40
2022-09-15T21:06:43.268Z,99848.20
2022-09-15T21:09:13.289Z,99853.40
2022-09-15T21:11:43.612Z,99853.60
2022-09-15T21:14:14.463Z,99856.80
2022-09-15T21:16:43.295Z,99856.20
2022-09-15T21:19:13.255Z,99856.60
2022-09-15T21:21:42.255Z,99859.80
2022-09-15T21:24:11.346Z,99859.40
2022-09-15T21:27:01.554Z,99858.40
2022-09-15T21:29:31.579Z,99856.20
2022-09-15T21:32:00.317Z,99857.20
2022-09-15T21:34:29.449Z,99861.60
2022-09-15T21:36:58.536Z,99866.20
2022-09-15T21:39:27.121Z,99860.40
2022-09-15T21:41:56.115Z,99858.80
2022-09-15T21:44:24.699Z,99853.80
2022-09-15T21:46:53.284Z,99860.00
2022-09-15T21:49:21.867Z,99862.20
2022-09-15T21:51:50.350Z,99859.60
2022-09-15T21:54:18.835Z,99862.00
2022-09-15T21:56:47.538Z,99865.00
2022-09-15T21:59:18.461Z,99870.20
2022-09-15T22:01:47.092Z,99873.80
2022-09-15T22:04:16.036Z,99880.00
2022-09-15T22:06:45.315Z,99881.60
2022-09-15T22:09:21.456Z,99881.00
2022-09-15T22:11:50.096Z,99884.00
2022-09-15T22:14:19.078Z,99886.40
2022-09-15T22:16:47.806Z,99884.80
2022-09-15T22:19:16.558Z,99888.40
2022-09-15T22:21:45.448Z,99886.60
2022-09-15T22:24:14.338Z,99888.00
2022-09-15T22:26:44.257Z,99884.40
2022-09-15T22:29:12.941Z,99883.40
2022-09-15T22:31:42.469Z,99886.40
2022-09-15T22:34:11.237Z,99883.40
2022-09-15T22:36:39.821Z,99888.20
2022-09-15T22:39:08.304Z,99888.60
2022-09-15T22:41:40.402Z,99888.60
2022-09-15T22:44:19.311Z,99887.60
2022-09-15T22:46:49.965Z,99883.40
2022-09-15T22:49:18.717Z,99883.00
2022-09-15T22:51:47.301Z,99880.00
2022-09-15T22:54:15.886Z,99879.40
2022-09-15T22:56:47.178Z,99887.20
2022-09-15T22:59:16.024Z,99885.80
2022-09-15T23:07:24.888Z,99892.40
2022-09-15T23:09:53.370Z,99890.20
2022-09-15T23:12:21.857Z,99895.40
2022-09-15T23:14:50.334Z,99898.80
2022-09-15T23:17:18.821Z,99897.60
2022-09-15T23:19:47.505Z,99903.20
2022-09-15T23:22:16.294Z,99899.60
2022-09-15T23:24:45.491Z,99908.00
2022-09-15T23:27:14.303Z,99907.80
2022-09-15T23:29:42.864Z,99910.80
2022-09-15T23:32:11.553Z,99909.20
2022-09-15T23:34:40.136Z,99906.20
2022-09-15T23:37:08.618Z,99907.20
2022-09-15T23:39:37.099Z,99906.60
2022-09-15T23:42:05.786Z,99905.20
2022-09-15T23:44:34.269Z,99903.80
2022-09-15T23:47:02.891Z,99903.40
2022-09-15T23:49:31.439Z,99906.40
2022-09-15T23:52:00.581Z,99906.00
2022-09-15T23:54:29.118Z,99902.00
2022-09-15T23:56:57.600Z,99904.80
2022-09-15T23:59:26.085Z,99907.40
